sensor_id;sensor_type;location;lat;lon;timestamp;temperature;humidity
56322;DHT22;42227;6.376;-10.782;2023-07-28T00:01:29;26.90;1.00
56322;DHT22;42227;6.376;-10.782;2023-07-28T00:04:01;27.30;1.00
56322;DHT22;42227;6.376;-10.782;2023-07-28T00:06:30;27.40;1.00
56322;DHT22;42227;6.376;-10.782;2023-07-28T00:09:02;27.40;1.00
56322;DHT22;42227;6.376;-10.782;2023-07-28T00:11:30;27.30;1.00
56322;DHT22;42227;6.376;-10.782;2023-07-28T00:13:59;27.00;1.00
56322;DHT22;42227;6.376;-10.782;2023-07-28T00:16:27;26.70;1.00
56322;DHT22;42227;6.376;-10.782;2023-07-28T00:18:56;26.60;1.00
56322;DHT22;42227;6.376;-10.782;2023-07-28T00:21:30;26.60;1.00
56322;DHT22;42227;6.376;-10.782;2023-07-28T00:23:59;26.50;1.00
56322;DHT22;42227;6.376;-10.782;2023-07-28T00:26:28;26.50;1.00
56322;DHT22;42227;6.376;-10.782;2023-07-28T00:28:57;26.40;1.00
56322;DHT22;42227;6.376;-10.782;2023-07-28T00:31:26;26.40;1.00
56322;DHT22;42227;6.376;-10.782;2023-07-28T00:33:58;26.40;1.00
56322;DHT22;42227;6.376;-10.782;2023-07-28T00:36:27;26.40;1.00
56322;DHT22;42227;6.376;-10.782;2023-07-28T00:38:57;26.80;1.00
56322;DHT22;42227;6.376;-10.782;2023-07-28T00:41:25;27.20;1.00
56322;DHT22;42227;6.376;-10.782;2023-07-28T00:43:57;27.30;1.00
56322;DHT22;42227;6.376;-10.782;2023-07-28T00:46:27;27.40;1.00
56322;DHT22;42227;6.376;-10.782;2023-07-28T00:48:56;27.50;1.00
56322;DHT22;42227;6.376;-10.782;2023-07-28T00:51:29;27.50;1.00
56322;DHT22;42227;6.376;-10.782;2023-07-28T00:53:58;27.30;1.00
56322;DHT22;42227;6.376;-10.782;2023-07-28T00:56:27;26.90;1.00
56322;DHT22;42227;6.376;-10.782;2023-07-28T00:58:56;26.60;1.00
56322;DHT22;42227;6.376;-10.782;2023-07-28T01:01:24;26.50;1.00
56322;DHT22;42227;6.376;-10.782;2023-07-28T01:03:53;26.40;1.00
56322;DHT22;42227;6.376;-10.782;2023-07-28T01:07:01;26.40;1.00
56322;DHT22;42227;6.376;-10.782;2023-07-28T01:09:56;26.40;1.00
56322;DHT22;42227;6.376;-10.782;2023-07-28T01:12:24;26.40;1.00
56322;DHT22;42227;6.376;-10.782;2023-07-28T01:14:53;26.30;1.00
56322;DHT22;42227;6.376;-10.782;2023-07-28T01:17:21;26.30;1.00
56322;DHT22;42227;6.376;-10.782;2023-07-28T01:19:51;26.40;1.00
56322;DHT22;42227;6.376;-10.782;2023-07-28T01:26:12;27.00;1.00
56322;DHT22;42227;6.376;-10.782;2023-07-28T01:28:21;27.20;1.00
56322;DHT22;42227;6.376;-10.782;2023-07-28T01:30:50;27.10;1.00
56322;DHT22;42227;6.376;-10.782;2023-07-28T01:33:19;27.10;1.00
56322;DHT22;42227;6.376;-10.782;2023-07-28T01:35:48;26.80;1.00
56322;DHT22;42227;6.376;-10.782;2023-07-28T01:38:16;26.60;1.00
56322;DHT22;42227;6.376;-10.782;2023-07-28T01:40:45;26.60;1.00
56322;DHT22;42227;6.376;-10.782;2023-07-28T01:43:13;26.40;1.00
56322;DHT22;42227;6.376;-10.782;2023-07-28T01:45:42;26.40;1.00
56322;DHT22;42227;6.376;-10.782;2023-07-28T01:48:10;26.40;1.00
56322;DHT22;42227;6.376;-10.782;2023-07-28T01:50:41;26.30;1.00
56322;DHT22;42227;6.376;-10.782;2023-07-28T01:53:09;26.30;1.00
56322;DHT22;42227;6.376;-10.782;2023-07-28T01:55:38;26.30;1.00
56322;DHT22;42227;6.376;-10.782;2023-07-28T01:58:06;26.30;1.00
56322;DHT22;42227;6.376;-10.782;2023-07-28T02:00:35;26.60;1.00
56322;DHT22;42227;6.376;-10.782;2023-07-28T02:03:04;26.80;1.00
56322;DHT22;42227;6.376;-10.782;2023-07-28T02:05:32;27.00;1.00
56322;DHT22;42227;6.376;-10.782;2023-07-28T02:08:01;27.20;1.00
56322;DHT22;42227;6.376;-10.782;2023-07-28T02:10:30;27.20;1.00
56322;DHT22;42227;6.376;-10.782;2023-07-28T02:12:58;26.90;1.00
56322;DHT22;42227;6.376;-10.782;2023-07-28T02:15:27;26.60;1.00
56322;DHT22;42227;6.376;-10.782;2023-07-28T02:17:55;26.50;1.00
56322;DHT22;42227;6.376;-10.782;2023-07-28T02:20:24;26.40;1.00
56322;DHT22;42227;6.376;-10.782;2023-07-28T02:22:53;26.40;1.00
56322;DHT22;42227;6.376;-10.782;2023-07-28T02:25:21;26.40;1.00
56322;DHT22;42227;6.376;-10.782;2023-07-28T02:27:50;26.30;1.00
56322;DHT22;42227;6.376;-10.782;2023-07-28T02:30:18;26.30;1.00
56322;DHT22;42227;6.376;-10.782;2023-07-28T02:32:47;26.20;1.00
56322;DHT22;42227;6.376;-10.782;2023-07-28T02:35:15;26.50;1.00
56322;DHT22;42227;6.376;-10.782;2023-07-28T02:37:48;26.80;1.00
56322;DHT22;42227;6.376;-10.782;2023-07-28T02:40:16;26.80;1.00
56322;DHT22;42227;6.376;-10.782;2023-07-28T02:42:45;26.80;1.00
56322;DHT22;42227;6.376;-10.782;2023-07-28T02:45:14;26.90;1.00
56322;DHT22;42227;6.376;-10.782;2023-07-28T02:47:42;26.70;1.00
56322;DHT22;42227;6.376;-10.782;2023-07-28T02:50:11;26.50;1.00
56322;DHT22;42227;6.376;-10.782;2023-07-28T02:52:39;26.30;1.00
56322;DHT22;42227;6.376;-10.782;2023-07-28T02:55:08;26.20;1.00
56322;DHT22;42227;6.376;-10.782;2023-07-28T02:57:37;26.20;1.00
56322;DHT22;42227;6.376;-10.782;2023-07-28T03:00:06;26.10;1.00
56322;DHT22;42227;6.376;-10.782;2023-07-28T03:02:35;26.00;11.00
56322;DHT22;42227;6.376;-10.782;2023-07-28T03:05:04;25.90;42.30
56322;DHT22;42227;6.376;-10.782;2023-07-28T03:08:02;25.90;75.00
56322;DHT22;42227;6.376;-10.782;2023-07-28T03:10:31;25.70;92.60
56322;DHT22;42227;6.376;-10.782;2023-07-28T03:12:59;26.00;99.90
56322;DHT22;42227;6.376;-10.782;2023-07-28T03:15:28;26.20;97.80
56322;DHT22;42227;6.376;-10.782;2023-07-28T03:17:57;26.40;79.80
56322;DHT22;42227;6.376;-10.782;2023-07-28T03:20:25;26.50;59.50
56322;DHT22;42227;6.376;-10.782;2023-07-28T03:22:53;26.60;20.10
56322;DHT22;42227;6.376;-10.782;2023-07-28T03:25:22;26.30;1.00
56322;DHT22;42227;6.376;-10.782;2023-07-28T03:27:52;26.10;12.70
56322;DHT22;42227;6.376;-10.782;2023-07-28T03:30:20;26.00;34.60
56322;DHT22;42227;6.376;-10.782;2023-07-28T03:32:49;26.00;49.90
56322;DHT22;42227;6.376;-10.782;2023-07-28T03:35:17;25.90;76.00
56322;DHT22;42227;6.376;-10.782;2023-07-28T03:37:53;25.90;92.20
56322;DHT22;42227;6.376;-10.782;2023-07-28T03:40:22;25.90;95.70
56322;DHT22;42227;6.376;-10.782;2023-07-28T03:42:53;25.80;93.60
56322;DHT22;42227;6.376;-10.782;2023-07-28T03:45:22;25.90;83.20
56322;DHT22;42227;6.376;-10.782;2023-07-28T03:47:51;25.90;76.30
56322;DHT22;42227;6.376;-10.782;2023-07-28T03:50:19;26.10;88.20
56322;DHT22;42227;6.376;-10.782;2023-07-28T03:52:48;26.10;86.40
56322;DHT22;42227;6.376;-10.782;2023-07-28T03:55:16;26.30;79.10
56322;DHT22;42227;6.376;-10.782;2023-07-28T03:57:45;26.40;53.90
56322;DHT22;42227;6.376;-10.782;2023-07-28T04:00:15;26.10;39.00
56322;DHT22;42227;6.376;-10.782;2023-07-28T04:02:43;25.70;52.50
56322;DHT22;42227;6.376;-10.782;2023-07-28T04:05:12;25.50;90.20
56322;DHT22;42227;6.376;-10.782;2023-07-28T04:07:41;25.40;99.90
56322;DHT22;42227;6.376;-10.782;2023-07-28T04:10:09;25.40;99.90
56322;DHT22;42227;6.376;-10.782;2023-07-28T04:12:38;25.30;99.90
56322;DHT22;42227;6.376;-10.782;2023-07-28T04:15:07;25.50;99.90
56322;DHT22;42227;6.376;-10.782;2023-07-28T04:17:36;25.50;99.90
56322;DHT22;42227;6.376;-10.782;2023-07-28T04:20:05;25.50;99.90
56322;DHT22;42227;6.376;-10.782;2023-07-28T04:22:34;25.50;99.90
56322;DHT22;42227;6.376;-10.782;2023-07-28T04:25:03;25.50;99.90
56322;DHT22;42227;6.376;-10.782;2023-07-28T04:27:34;25.70;99.90
56322;DHT22;42227;6.376;-10.782;2023-07-28T04:30:05;26.00;99.90
56322;DHT22;42227;6.376;-10.782;2023-07-28T04:32:34;26.10;99.90
56322;DHT22;42227;6.376;-10.782;2023-07-28T04:35:10;26.20;99.90
56322;DHT22;42227;6.376;-10.782;2023-07-28T04:37:43;26.30;99.90
56322;DHT22;42227;6.376;-10.782;2023-07-28T04:40:16;26.20;99.90
56322;DHT22;42227;6.376;-10.782;2023-07-28T04:42:45;25.90;99.90
56322;DHT22;42227;6.376;-10.782;2023-07-28T04:45:13;25.80;99.90
56322;DHT22;42227;6.376;-10.782;2023-07-28T04:47:42;25.70;99.90
56322;DHT22;42227;6.376;-10.782;2023-07-28T04:50:10;25.60;99.90
56322;DHT22;42227;6.376;-10.782;2023-07-28T04:52:59;25.50;99.90
56322;DHT22;42227;6.376;-10.782;2023-07-28T04:55:46;25.50;99.90
56322;DHT22;42227;6.376;-10.782;2023-07-28T04:58:15;25.40;99.90
56322;DHT22;42227;6.376;-10.782;2023-07-28T05:00:49;25.30;99.90
56322;DHT22;42227;6.376;-10.782;2023-07-28T05:03:17;25.30;99.90
56322;DHT22;42227;6.376;-10.782;2023-07-28T05:05:52;25.30;99.90
56322;DHT22;42227;6.376;-10.782;2023-07-28T05:08:21;25.50;99.90
56322;DHT22;42227;6.376;-10.782;2023-07-28T05:10:55;25.80;99.90
56322;DHT22;42227;6.376;-10.782;2023-07-28T05:13:25;26.10;99.90
56322;DHT22;42227;6.376;-10.782;2023-07-28T05:15:57;26.10;99.90
56322;DHT22;42227;6.376;-10.782;2023-07-28T05:19:08;25.90;99.90
56322;DHT22;42227;6.376;-10.782;2023-07-28T05:21:55;25.70;99.90
56322;DHT22;42227;6.376;-10.782;2023-07-28T05:24:40;25.60;99.90
56322;DHT22;42227;6.376;-10.782;2023-07-28T05:27:08;25.50;99.90
56322;DHT22;42227;6.376;-10.782;2023-07-28T05:29:38;25.50;99.90
56322;DHT22;42227;6.376;-10.782;2023-07-28T05:32:07;25.40;99.90
56322;DHT22;42227;6.376;-10.782;2023-07-28T05:34:53;25.40;99.90
56322;DHT22;42227;6.376;-10.782;2023-07-28T05:37:31;25.40;99.90
56322;DHT22;42227;6.376;-10.782;2023-07-28T05:40:00;25.40;99.90
56322;DHT22;42227;6.376;-10.782;2023-07-28T05:42:30;25.70;99.90
56322;DHT22;42227;6.376;-10.782;2023-07-28T05:44:59;25.90;99.90
56322;DHT22;42227;6.376;-10.782;2023-07-28T05:47:28;26.10;99.90
56322;DHT22;42227;6.376;-10.782;2023-07-28T05:49:56;26.30;99.90
56322;DHT22;42227;6.376;-10.782;2023-07-28T05:52:44;26.40;99.90
56322;DHT22;42227;6.376;-10.782;2023-07-28T05:55:13;26.30;99.90
56322;DHT22;42227;6.376;-10.782;2023-07-28T05:57:42;26.00;99.90
56322;DHT22;42227;6.376;-10.782;2023-07-28T06:00:11;25.80;99.90
56322;DHT22;42227;6.376;-10.782;2023-07-28T06:02:42;25.70;99.90
56322;DHT22;42227;6.376;-10.782;2023-07-28T06:05:22;25.60;99.90
56322;DHT22;42227;6.376;-10.782;2023-07-28T06:07:50;25.60;99.90
56322;DHT22;42227;6.376;-10.782;2023-07-28T06:10:19;25.50;99.90
56322;DHT22;42227;6.376;-10.782;2023-07-28T06:12:47;25.60;99.90
56322;DHT22;42227;6.376;-10.782;2023-07-28T06:15:17;25.60;99.90
56322;DHT22;42227;6.376;-10.782;2023-07-28T06:17:47;25.60;99.90
56322;DHT22;42227;6.376;-10.782;2023-07-28T06:20:17;25.60;99.90
56322;DHT22;42227;6.376;-10.782;2023-07-28T06:22:47;25.50;99.90
56322;DHT22;42227;6.376;-10.782;2023-07-28T06:25:17;25.70;99.90
56322;DHT22;42227;6.376;-10.782;2023-07-28T06:27:46;26.00;99.90
56322;DHT22;42227;6.376;-10.782;2023-07-28T06:30:15;26.30;99.90
56322;DHT22;42227;6.376;-10.782;2023-07-28T06:32:43;26.30;99.90
56322;DHT22;42227;6.376;-10.782;2023-07-28T06:35:14;26.50;99.90
56322;DHT22;42227;6.376;-10.782;2023-07-28T06:37:43;26.50;99.90
56322;DHT22;42227;6.376;-10.782;2023-07-28T06:40:11;26.50;86.50
56322;DHT22;42227;6.376;-10.782;2023-07-28T06:42:40;26.30;72.30
56322;DHT22;42227;6.376;-10.782;2023-07-28T06:45:10;26.30;78.40
56322;DHT22;42227;6.376;-10.782;2023-07-28T06:47:39;26.40;56.50
56322;DHT22;42227;6.376;-10.782;2023-07-28T06:50:07;26.00;66.20
56322;DHT22;42227;6.376;-10.782;2023-07-28T06:52:36;25.90;94.80
56322;DHT22;42227;6.376;-10.782;2023-07-28T06:55:05;25.70;99.90
56322;DHT22;42227;6.376;-10.782;2023-07-28T06:57:35;25.60;99.90
56322;DHT22;42227;6.376;-10.782;2023-07-28T07:00:07;25.60;99.90
56322;DHT22;42227;6.376;-10.782;2023-07-28T07:02:36;25.50;99.90
56322;DHT22;42227;6.376;-10.782;2023-07-28T07:05:05;25.50;99.90
56322;DHT22;42227;6.376;-10.782;2023-07-28T07:07:34;25.40;99.90
56322;DHT22;42227;6.376;-10.782;2023-07-28T07:10:03;25.50;99.90
56322;DHT22;42227;6.376;-10.782;2023-07-28T07:12:32;25.40;99.90
56322;DHT22;42227;6.376;-10.782;2023-07-28T07:15:00;25.40;99.90
56322;DHT22;42227;6.376;-10.782;2023-07-28T07:17:29;25.50;99.90
56322;DHT22;42227;6.376;-10.782;2023-07-28T07:19:57;25.60;99.90
56322;DHT22;42227;6.376;-10.782;2023-07-28T07:22:26;25.80;99.90
56322;DHT22;42227;6.376;-10.782;2023-07-28T07:24:55;25.80;99.90
56322;DHT22;42227;6.376;-10.782;2023-07-28T07:27:26;25.70;99.90
56322;DHT22;42227;6.376;-10.782;2023-07-28T07:29:55;25.80;99.90
56322;DHT22;42227;6.376;-10.782;2023-07-28T07:32:23;25.80;99.90
56322;DHT22;42227;6.376;-10.782;2023-07-28T07:34:52;25.80;99.90
56322;DHT22;42227;6.376;-10.782;2023-07-28T07:37:20;25.90;99.90
56322;DHT22;42227;6.376;-10.782;2023-07-28T07:39:49;25.80;99.90
56322;DHT22;42227;6.376;-10.782;2023-07-28T07:42:17;25.60;99.90
56322;DHT22;42227;6.376;-10.782;2023-07-28T07:44:46;25.40;99.90
56322;DHT22;42227;6.376;-10.782;2023-07-28T07:47:15;25.30;99.90
56322;DHT22;42227;6.376;-10.782;2023-07-28T07:49:43;25.30;99.90
56322;DHT22;42227;6.376;-10.782;2023-07-28T07:52:12;25.20;99.90
56322;DHT22;42227;6.376;-10.782;2023-07-28T07:54:43;25.20;99.90
56322;DHT22;42227;6.376;-10.782;2023-07-28T07:57:15;25.20;99.90
56322;DHT22;42227;6.376;-10.782;2023-07-28T07:59:45;25.20;99.90
56322;DHT22;42227;6.376;-10.782;2023-07-28T08:02:14;25.20;99.90
56322;DHT22;42227;6.376;-10.782;2023-07-28T08:04:43;25.20;99.90
56322;DHT22;42227;6.376;-10.782;2023-07-28T08:07:12;25.20;99.90
56322;DHT22;42227;6.376;-10.782;2023-07-28T08:09:41;25.40;99.90
56322;DHT22;42227;6.376;-10.782;2023-07-28T08:12:09;25.80;99.90
56322;DHT22;42227;6.376;-10.782;2023-07-28T08:14:41;25.80;99.90
56322;DHT22;42227;6.376;-10.782;2023-07-28T08:17:10;25.90;99.90
56322;DHT22;42227;6.376;-10.782;2023-07-28T08:19:39;26.00;99.90
56322;DHT22;42227;6.376;-10.782;2023-07-28T08:22:36;26.00;99.90
56322;DHT22;42227;6.376;-10.782;2023-07-28T08:25:06;25.70;99.90
56322;DHT22;42227;6.376;-10.782;2023-07-28T08:27:35;25.40;99.90
56322;DHT22;42227;6.376;-10.782;2023-07-28T08:30:04;25.30;99.90
56322;DHT22;42227;6.376;-10.782;2023-07-28T08:32:32;25.30;99.90
56322;DHT22;42227;6.376;-10.782;2023-07-28T08:35:02;25.30;99.90
56322;DHT22;42227;6.376;-10.782;2023-07-28T08:37:30;25.30;99.90
56322;DHT22;42227;6.376;-10.782;2023-07-28T08:39:59;25.30;99.90
56322;DHT22;42227;6.376;-10.782;2023-07-28T08:42:36;25.30;99.90
56322;DHT22;42227;6.376;-10.782;2023-07-28T08:45:05;25.30;99.90
56322;DHT22;42227;6.376;-10.782;2023-07-28T08:47:35;25.30;99.90
56322;DHT22;42227;6.376;-10.782;2023-07-28T08:50:05;25.20;99.90
56322;DHT22;42227;6.376;-10.782;2023-07-28T08:52:34;25.20;99.90
56322;DHT22;42227;6.376;-10.782;2023-07-28T08:55:03;25.30;99.90
56322;DHT22;42227;6.376;-10.782;2023-07-28T08:57:31;25.60;99.90
56322;DHT22;42227;6.376;-10.782;2023-07-28T09:00:07;25.90;99.90
56322;DHT22;42227;6.376;-10.782;2023-07-28T09:02:36;26.00;99.90
56322;DHT22;42227;6.376;-10.782;2023-07-28T09:05:05;26.20;99.90
56322;DHT22;42227;6.376;-10.782;2023-07-28T09:07:37;26.30;99.90
56322;DHT22;42227;6.376;-10.782;2023-07-28T09:10:08;26.10;89.30
56322;DHT22;42227;6.376;-10.782;2023-07-28T09:12:45;25.90;85.20
56322;DHT22;42227;6.376;-10.782;2023-07-28T09:15:14;25.70;98.80
56322;DHT22;42227;6.376;-10.782;2023-07-28T09:17:46;25.50;99.90
56322;DHT22;42227;6.376;-10.782;2023-07-28T09:20:17;25.50;99.90
56322;DHT22;42227;6.376;-10.782;2023-07-28T09:22:46;25.40;99.90
56322;DHT22;42227;6.376;-10.782;2023-07-28T09:25:18;25.40;99.90
56322;DHT22;42227;6.376;-10.782;2023-07-28T09:27:53;25.40;99.90
56322;DHT22;42227;6.376;-10.782;2023-07-28T09:30:23;25.30;99.90
56322;DHT22;42227;6.376;-10.782;2023-07-28T09:32:55;25.30;99.90
56322;DHT22;42227;6.376;-10.782;2023-07-28T09:35:23;25.30;99.90
56322;DHT22;42227;6.376;-10.782;2023-07-28T09:37:53;25.30;99.90
56322;DHT22;42227;6.376;-10.782;2023-07-28T09:40:23;25.40;99.90
56322;DHT22;42227;6.376;-10.782;2023-07-28T09:42:51;25.50;99.90
56322;DHT22;42227;6.376;-10.782;2023-07-28T09:45:23;25.70;99.90
56322;DHT22;42227;6.376;-10.782;2023-07-28T09:47:57;26.10;99.90
56322;DHT22;42227;6.376;-10.782;2023-07-28T09:50:27;26.20;99.90
56322;DHT22;42227;6.376;-10.782;2023-07-28T09:53:01;26.30;99.90
56322;DHT22;42227;6.376;-10.782;2023-07-28T09:55:31;26.30;99.90
56322;DHT22;42227;6.376;-10.782;2023-07-28T09:58:04;26.40;99.90
56322;DHT22;42227;6.376;-10.782;2023-07-28T10:00:33;26.00;99.90
56322;DHT22;42227;6.376;-10.782;2023-07-28T10:03:03;25.80;99.90
56322;DHT22;42227;6.376;-10.782;2023-07-28T10:05:33;25.70;99.90
56322;DHT22;42227;6.376;-10.782;2023-07-28T10:08:03;25.50;99.90
56322;DHT22;42227;6.376;-10.782;2023-07-28T10:10:32;25.50;99.90
56322;DHT22;42227;6.376;-10.782;2023-07-28T10:13:02;25.40;99.90
56322;DHT22;42227;6.376;-10.782;2023-07-28T10:15:32;25.40;99.90
56322;DHT22;42227;6.376;-10.782;2023-07-28T10:18:01;25.30;99.90
56322;DHT22;42227;6.376;-10.782;2023-07-28T10:20:35;25.30;99.90
56322;DHT22;42227;6.376;-10.782;2023-07-28T10:25:37;25.30;99.90
56322;DHT22;42227;6.376;-10.782;2023-07-28T10:28:06;25.20;99.90
56322;DHT22;42227;6.376;-10.782;2023-07-28T10:30:38;25.20;99.90
56322;DHT22;42227;6.376;-10.782;2023-07-28T10:33:07;25.40;99.90
56322;DHT22;42227;6.376;-10.782;2023-07-28T10:36:32;25.70;99.90
56322;DHT22;42227;6.376;-10.782;2023-07-28T10:39:22;25.80;99.90
56322;DHT22;42227;6.376;-10.782;2023-07-28T10:42:03;26.00;99.90
56322;DHT22;42227;6.376;-10.782;2023-07-28T10:44:32;25.90;99.90
56322;DHT22;42227;6.376;-10.782;2023-07-28T10:47:00;25.80;99.90
56322;DHT22;42227;6.376;-10.782;2023-07-28T10:49:29;25.60;99.90
56322;DHT22;42227;6.376;-10.782;2023-07-28T10:51:58;25.50;99.90
56322;DHT22;42227;6.376;-10.782;2023-07-28T10:54:27;25.50;99.90
56322;DHT22;42227;6.376;-10.782;2023-07-28T10:56:56;25.40;99.90
56322;DHT22;42227;6.376;-10.782;2023-07-28T10:59:24;25.40;99.90
56322;DHT22;42227;6.376;-10.782;2023-07-28T11:01:53;25.40;99.90
56322;DHT22;42227;6.376;-10.782;2023-07-28T11:04:21;25.50;99.90
56322;DHT22;42227;6.376;-10.782;2023-07-28T11:06:51;25.40;99.90
56322;DHT22;42227;6.376;-10.782;2023-07-28T11:09:23;25.40;99.90
56322;DHT22;42227;6.376;-10.782;2023-07-28T11:11:52;25.40;99.90
56322;DHT22;42227;6.376;-10.782;2023-07-28T11:14:22;25.50;99.90
56322;DHT22;42227;6.376;-10.782;2023-07-28T11:16:51;25.50;99.90
56322;DHT22;42227;6.376;-10.782;2023-07-28T11:19:20;25.70;99.90
56322;DHT22;42227;6.376;-10.782;2023-07-28T11:21:50;25.90;99.90
56322;DHT22;42227;6.376;-10.782;2023-07-28T11:24:20;26.00;99.90
56322;DHT22;42227;6.376;-10.782;2023-07-28T11:26:49;26.10;99.90
56322;DHT22;42227;6.376;-10.782;2023-07-28T11:29:21;26.10;99.90
56322;DHT22;42227;6.376;-10.782;2023-07-28T11:31:51;26.10;89.70
56322;DHT22;42227;6.376;-10.782;2023-07-28T11:34:20;26.00;59.40
56322;DHT22;42227;6.376;-10.782;2023-07-28T11:36:49;25.90;91.40
56322;DHT22;42227;6.376;-10.782;2023-07-28T11:39:18;25.80;96.20
56322;DHT22;42227;6.376;-10.782;2023-07-28T11:41:48;25.90;98.20
56322;DHT22;42227;6.376;-10.782;2023-07-28T11:44:18;25.90;91.50
56322;DHT22;42227;6.376;-10.782;2023-07-28T11:46:47;26.00;92.60
56322;DHT22;42227;6.376;-10.782;2023-07-28T11:49:17;25.90;84.20
56322;DHT22;42227;6.376;-10.782;2023-07-28T11:51:49;25.90;90.90
56322;DHT22;42227;6.376;-10.782;2023-07-28T11:54:20;25.90;67.90
56322;DHT22;42227;6.376;-10.782;2023-07-28T11:56:51;26.10;84.10
56322;DHT22;42227;6.376;-10.782;2023-07-28T11:59:21;26.10;89.30
56322;DHT22;42227;6.376;-10.782;2023-07-28T12:02:02;26.10;70.40
56322;DHT22;42227;6.376;-10.782;2023-07-28T12:04:37;26.10;68.90
56322;DHT22;42227;6.376;-10.782;2023-07-28T12:07:12;26.30;75.10
56322;DHT22;42227;6.376;-10.782;2023-07-28T12:12:17;26.70;29.50
56322;DHT22;42227;6.376;-10.782;2023-07-28T12:14:50;26.80;9.70
56322;DHT22;42227;6.376;-10.782;2023-07-28T12:17:38;26.90;1.00
56322;DHT22;42227;6.376;-10.782;2023-07-28T12:20:10;27.10;1.00
56322;DHT22;42227;6.376;-10.782;2023-07-28T12:22:41;26.90;1.00
56322;DHT22;42227;6.376;-10.782;2023-07-28T12:25:11;26.70;1.00
56322;DHT22;42227;6.376;-10.782;2023-07-28T12:27:40;26.60;1.00
56322;DHT22;42227;6.376;-10.782;2023-07-28T12:30:09;26.40;12.10
56322;DHT22;42227;6.376;-10.782;2023-07-28T12:32:40;26.40;29.00
56322;DHT22;42227;6.376;-10.782;2023-07-28T12:35:30;26.40;44.30
56322;DHT22;42227;6.376;-10.782;2023-07-28T12:38:03;26.30;66.40
56322;DHT22;42227;6.376;-10.782;2023-07-28T12:40:52;26.20;97.30
56322;DHT22;42227;6.376;-10.782;2023-07-28T12:43:24;26.20;99.90
56322;DHT22;42227;6.376;-10.782;2023-07-28T12:45:55;26.30;99.90
56322;DHT22;42227;6.376;-10.782;2023-07-28T12:48:27;26.20;99.90
56322;DHT22;42227;6.376;-10.782;2023-07-28T12:50:56;26.00;99.90
56322;DHT22;42227;6.376;-10.782;2023-07-28T12:53:28;25.90;99.90
56322;DHT22;42227;6.376;-10.782;2023-07-28T12:56:00;25.80;99.90
56322;DHT22;42227;6.376;-10.782;2023-07-28T12:58:29;25.90;99.90
56322;DHT22;42227;6.376;-10.782;2023-07-28T13:01:01;26.00;99.90
56322;DHT22;42227;6.376;-10.782;2023-07-28T13:03:30;26.10;99.90
56322;DHT22;42227;6.376;-10.782;2023-07-28T13:06:05;26.10;99.90
56322;DHT22;42227;6.376;-10.782;2023-07-28T13:08:34;26.20;99.90
56322;DHT22;42227;6.376;-10.782;2023-07-28T13:11:05;26.10;99.90
56322;DHT22;42227;6.376;-10.782;2023-07-28T13:13:37;26.00;99.90
56322;DHT22;42227;6.376;-10.782;2023-07-28T13:16:07;25.90;99.90
56322;DHT22;42227;6.376;-10.782;2023-07-28T13:18:42;25.80;99.90
56322;DHT22;42227;6.376;-10.782;2023-07-28T13:21:11;25.90;99.90
56322;DHT22;42227;6.376;-10.782;2023-07-28T13:23:40;26.10;99.90
56322;DHT22;42227;6.376;-10.782;2023-07-28T13:51:14;25.60;99.90
56322;DHT22;42227;6.376;-10.782;2023-07-28T13:53:51;25.60;99.90
56322;DHT22;42227;6.376;-10.782;2023-07-28T13:56:38;25.70;99.90
56322;DHT22;42227;6.376;-10.782;2023-07-28T13:59:29;25.70;99.90
56322;DHT22;42227;6.376;-10.782;2023-07-28T14:02:00;26.00;99.90
56322;DHT22;42227;6.376;-10.782;2023-07-28T14:04:31;26.40;99.90
56322;DHT22;42227;6.376;-10.782;2023-07-28T14:07:01;26.70;99.90
56322;DHT22;42227;6.376;-10.782;2023-07-28T14:09:32;26.90;99.90
56322;DHT22;42227;6.376;-10.782;2023-07-28T14:12:02;26.80;96.80
56322;DHT22;42227;6.376;-10.782;2023-07-28T14:14:33;26.90;75.60
56322;DHT22;42227;6.376;-10.782;2023-07-28T14:17:06;27.10;39.60
56322;DHT22;42227;6.376;-10.782;2023-07-28T14:19:40;27.30;37.00
56322;DHT22;42227;6.376;-10.782;2023-07-28T14:22:13;27.30;30.00
56322;DHT22;42227;6.376;-10.782;2023-07-28T14:24:45;27.10;8.50
56322;DHT22;42227;6.376;-10.782;2023-07-28T14:27:15;26.90;1.00
56322;DHT22;42227;6.376;-10.782;2023-07-28T14:29:46;26.90;1.00
56322;DHT22;42227;6.376;-10.782;2023-07-28T14:32:17;27.00;1.00
56322;DHT22;42227;6.376;-10.782;2023-07-28T14:34:47;27.00;1.00
56322;DHT22;42227;6.376;-10.782;2023-07-28T14:37:20;27.00;1.00
56322;DHT22;42227;6.376;-10.782;2023-07-28T14:39:55;27.00;1.00
56322;DHT22;42227;6.376;-10.782;2023-07-28T14:42:25;27.10;1.00
56322;DHT22;42227;6.376;-10.782;2023-07-28T14:44:57;27.00;1.00
56322;DHT22;42227;6.376;-10.782;2023-07-28T14:47:30;27.10;1.00
56322;DHT22;42227;6.376;-10.782;2023-07-28T14:50:01;27.00;1.00
56322;DHT22;42227;6.376;-10.782;2023-07-28T14:52:31;26.90;1.00
56322;DHT22;42227;6.376;-10.782;2023-07-28T14:55:02;27.10;1.00
56322;DHT22;42227;6.376;-10.782;2023-07-28T14:57:36;27.20;1.00
56322;DHT22;42227;6.376;-10.782;2023-07-28T15:00:08;26.90;1.00
56322;DHT22;42227;6.376;-10.782;2023-07-28T15:02:39;26.80;1.00
56322;DHT22;42227;6.376;-10.782;2023-07-28T15:05:10;26.70;1.00
56322;DHT22;42227;6.376;-10.782;2023-07-28T15:07:40;26.80;1.00
56322;DHT22;42227;6.376;-10.782;2023-07-28T15:10:15;26.90;1.00
56322;DHT22;42227;6.376;-10.782;2023-07-28T15:12:47;27.00;1.00
56322;DHT22;42227;6.376;-10.782;2023-07-28T15:15:19;26.90;1.00
56322;DHT22;42227;6.376;-10.782;2023-07-28T15:17:51;27.00;1.00
56322;DHT22;42227;6.376;-10.782;2023-07-28T15:20:30;27.00;1.00
56322;DHT22;42227;6.376;-10.782;2023-07-28T15:23:00;27.00;1.00
56322;DHT22;42227;6.376;-10.782;2023-07-28T15:25:33;27.10;1.00
56322;DHT22;42227;6.376;-10.782;2023-07-28T15:28:03;26.90;1.00
56322;DHT22;42227;6.376;-10.782;2023-07-28T15:30:34;26.90;1.00
56322;DHT22;42227;6.376;-10.782;2023-07-28T15:33:04;27.00;99.90
56322;DHT22;42227;6.376;-10.782;2023-07-28T15:35:35;26.90;99.90
56322;DHT22;42227;6.376;-10.782;2023-07-28T15:38:10;26.90;1.00
56322;DHT22;42227;6.376;-10.782;2023-07-28T15:40:40;26.90;1.00
56322;DHT22;42227;6.376;-10.782;2023-07-28T15:43:11;26.80;1.00
56322;DHT22;42227;6.376;-10.782;2023-07-28T15:45:41;26.80;1.00
56322;DHT22;42227;6.376;-10.782;2023-07-28T15:48:11;26.90;1.00
56322;DHT22;42227;6.376;-10.782;2023-07-28T15:50:43;27.00;1.00
56322;DHT22;42227;6.376;-10.782;2023-07-28T15:53:13;26.90;1.00
56322;DHT22;42227;6.376;-10.782;2023-07-28T15:55:44;26.80;1.00
56322;DHT22;42227;6.376;-10.782;2023-07-28T15:58:18;26.80;1.00
56322;DHT22;42227;6.376;-10.782;2023-07-28T16:00:52;26.70;1.00
56322;DHT22;42227;6.376;-10.782;2023-07-28T16:03:26;26.60;1.00
56322;DHT22;42227;6.376;-10.782;2023-07-28T16:05:58;26.70;1.00
56322;DHT22;42227;6.376;-10.782;2023-07-28T16:08:30;26.80;1.00
56322;DHT22;42227;6.376;-10.782;2023-07-28T16:11:00;26.80;1.00
56322;DHT22;42227;6.376;-10.782;2023-07-28T16:13:31;26.90;1.00
56322;DHT22;42227;6.376;-10.782;2023-07-28T16:16:05;26.80;1.00
56322;DHT22;42227;6.376;-10.782;2023-07-28T16:18:45;26.90;1.00